sensor_id;sensor_type;location;lat;lon;timestamp;temperature;humidity
21616;DHT22;10970;48.714;9.584;2023-03-29T00:00:21;6.00;99.90
21616;DHT22;10970;48.714;9.584;2023-03-29T00:02:48;5.90;99.90
21616;DHT22;10970;48.714;9.584;2023-03-29T00:05:16;5.80;99.90
21616;DHT22;10970;48.714;9.584;2023-03-29T00:07:43;5.70;99.90
21616;DHT22;10970;48.714;9.584;2023-03-29T00:10:09;5.70;99.90
21616;DHT22;10970;48.714;9.584;2023-03-29T00:12:37;5.70;99.90
21616;DHT22;10970;48.714;9.584;2023-03-29T00:15:03;5.60;99.90
21616;DHT22;10970;48.714;9.584;2023-03-29T00:17:29;5.70;99.90
21616;DHT22;10970;48.714;9.584;2023-03-29T00:19:55;5.70;99.90
21616;DHT22;10970;48.714;9.584;2023-03-29T00:22:21;5.60;99.90
21616;DHT22;10970;48.714;9.584;2023-03-29T00:24:46;5.60;99.90
21616;DHT22;10970;48.714;9.584;2023-03-29T00:27:14;5.60;99.90
21616;DHT22;10970;48.714;9.584;2023-03-29T00:29:40;5.60;99.90
21616;DHT22;10970;48.714;9.584;2023-03-29T00:32:06;5.60;99.90
21616;DHT22;10970;48.714;9.584;2023-03-29T00:34:32;5.60;99.90
21616;DHT22;10970;48.714;9.584;2023-03-29T00:37:03;5.60;99.90
21616;DHT22;10970;48.714;9.584;2023-03-29T00:39:33;5.60;99.90
21616;DHT22;10970;48.714;9.584;2023-03-29T00:42:00;5.70;99.90
21616;DHT22;10970;48.714;9.584;2023-03-29T00:44:52;5.80;99.90
21616;DHT22;10970;48.714;9.584;2023-03-29T00:47:23;5.70;99.90
21616;DHT22;10970;48.714;9.584;2023-03-29T00:49:50;5.70;99.90
21616;DHT22;10970;48.714;9.584;2023-03-29T00:52:18;5.70;99.90
21616;DHT22;10970;48.714;9.584;2023-03-29T00:54:52;5.60;99.90
21616;DHT22;10970;48.714;9.584;2023-03-29T00:57:19;5.70;99.90
21616;DHT22;10970;48.714;9.584;2023-03-29T00:59:47;5.60;99.90
21616;DHT22;10970;48.714;9.584;2023-03-29T01:02:15;5.60;99.90
21616;DHT22;10970;48.714;9.584;2023-03-29T01:04:46;5.60;99.90
21616;DHT22;10970;48.714;9.584;2023-03-29T01:07:20;5.50;99.90
21616;DHT22;10970;48.714;9.584;2023-03-29T01:09:54;5.50;99.90
21616;DHT22;10970;48.714;9.584;2023-03-29T01:12:30;5.60;99.90
21616;DHT22;10970;48.714;9.584;2023-03-29T01:15:08;5.60;99.90
21616;DHT22;10970;48.714;9.584;2023-03-29T01:17:34;5.60;99.90
21616;DHT22;10970;48.714;9.584;2023-03-29T01:20:14;5.50;99.90
21616;DHT22;10970;48.714;9.584;2023-03-29T01:28:49;5.50;99.90
21616;DHT22;10970;48.714;9.584;2023-03-29T01:31:23;5.50;99.90
21616;DHT22;10970;48.714;9.584;2023-03-29T01:33:57;5.50;99.90
21616;DHT22;10970;48.714;9.584;2023-03-29T01:36:30;5.60;99.90
21616;DHT22;10970;48.714;9.584;2023-03-29T01:39:03;5.60;99.90
21616;DHT22;10970;48.714;9.584;2023-03-29T01:44:18;5.50;99.90
21616;DHT22;10970;48.714;9.584;2023-03-29T01:47:37;5.60;99.90
21616;DHT22;10970;48.714;9.584;2023-03-29T01:49:59;5.60;99.90
21616;DHT22;10970;48.714;9.584;2023-03-29T01:52:37;5.50;99.90
21616;DHT22;10970;48.714;9.584;2023-03-29T01:55:12;5.60;99.90
21616;DHT22;10970;48.714;9.584;2023-03-29T01:57:41;5.60;99.90
21616;DHT22;10970;48.714;9.584;2023-03-29T02:00:12;5.60;99.90
21616;DHT22;10970;48.714;9.584;2023-03-29T02:02:39;5.60;99.90
21616;DHT22;10970;48.714;9.584;2023-03-29T02:05:07;5.60;99.90
21616;DHT22;10970;48.714;9.584;2023-03-29T02:07:35;5.60;99.90
21616;DHT22;10970;48.714;9.584;2023-03-29T02:10:04;5.60;99.90
21616;DHT22;10970;48.714;9.584;2023-03-29T02:12:31;5.60;99.90
21616;DHT22;10970;48.714;9.584;2023-03-29T02:14:57;5.60;99.90
21616;DHT22;10970;48.714;9.584;2023-03-29T02:17:25;5.60;99.90
21616;DHT22;10970;48.714;9.584;2023-03-29T02:20:07;5.60;99.90
21616;DHT22;10970;48.714;9.584;2023-03-29T02:23:06;5.60;99.90
21616;DHT22;10970;48.714;9.584;2023-03-29T02:25:34;5.60;99.90
21616;DHT22;10970;48.714;9.584;2023-03-29T02:28:02;5.60;99.90
21616;DHT22;10970;48.714;9.584;2023-03-29T02:30:37;5.60;99.90
21616;DHT22;10970;48.714;9.584;2023-03-29T02:33:18;5.70;99.90
21616;DHT22;10970;48.714;9.584;2023-03-29T02:35:55;5.70;99.90
21616;DHT22;10970;48.714;9.584;2023-03-29T02:38:23;5.70;99.90
21616;DHT22;10970;48.714;9.584;2023-03-29T02:40:51;5.80;99.90
21616;DHT22;10970;48.714;9.584;2023-03-29T02:43:18;5.70;99.90
21616;DHT22;10970;48.714;9.584;2023-03-29T02:45:46;5.70;99.90
21616;DHT22;10970;48.714;9.584;2023-03-29T02:48:14;5.70;99.90
21616;DHT22;10970;48.714;9.584;2023-03-29T02:50:42;5.70;99.90
21616;DHT22;10970;48.714;9.584;2023-03-29T02:53:16;5.70;99.90
21616;DHT22;10970;48.714;9.584;2023-03-29T02:55:43;5.70;99.90
21616;DHT22;10970;48.714;9.584;2023-03-29T02:58:11;5.70;99.90
21616;DHT22;10970;48.714;9.584;2023-03-29T03:00:41;5.70;99.90
21616;DHT22;10970;48.714;9.584;2023-03-29T03:03:09;5.70;99.90
21616;DHT22;10970;48.714;9.584;2023-03-29T03:05:36;5.60;99.90
21616;DHT22;10970;48.714;9.584;2023-03-29T03:08:06;5.70;99.90
21616;DHT22;10970;48.714;9.584;2023-03-29T03:10:32;5.60;99.90
21616;DHT22;10970;48.714;9.584;2023-03-29T03:12:59;5.60;99.90
21616;DHT22;10970;48.714;9.584;2023-03-29T03:15:25;5.50;99.90
21616;DHT22;10970;48.714;9.584;2023-03-29T03:17:51;5.50;99.90
21616;DHT22;10970;48.714;9.584;2023-03-29T03:20:17;5.50;99.90
21616;DHT22;10970;48.714;9.584;2023-03-29T03:22:45;5.50;99.90
21616;DHT22;10970;48.714;9.584;2023-03-29T03:25:18;5.40;99.90
21616;DHT22;10970;48.714;9.584;2023-03-29T03:27:47;5.40;99.90
21616;DHT22;10970;48.714;9.584;2023-03-29T03:30:15;5.40;99.90
21616;DHT22;10970;48.714;9.584;2023-03-29T03:32:41;5.50;99.90
21616;DHT22;10970;48.714;9.584;2023-03-29T03:35:10;5.50;99.90
21616;DHT22;10970;48.714;9.584;2023-03-29T03:37:37;5.60;99.90
21616;DHT22;10970;48.714;9.584;2023-03-29T03:40:07;5.80;99.90
21616;DHT22;10970;48.714;9.584;2023-03-29T03:42:37;5.70;99.90
21616;DHT22;10970;48.714;9.584;2023-03-29T03:45:04;5.70;99.90
21616;DHT22;10970;48.714;9.584;2023-03-29T03:47:30;5.60;99.90
21616;DHT22;10970;48.714;9.584;2023-03-29T03:49:55;5.60;99.90
21616;DHT22;10970;48.714;9.584;2023-03-29T03:52:21;5.60;99.90
21616;DHT22;10970;48.714;9.584;2023-03-29T03:54:47;5.60;99.90
21616;DHT22;10970;48.714;9.584;2023-03-29T03:57:14;5.60;99.90
21616;DHT22;10970;48.714;9.584;2023-03-29T03:59:40;5.70;99.90
21616;DHT22;10970;48.714;9.584;2023-03-29T04:02:05;5.60;99.90
21616;DHT22;10970;48.714;9.584;2023-03-29T04:04:31;5.70;99.90
21616;DHT22;10970;48.714;9.584;2023-03-29T04:06:57;5.70;99.90
21616;DHT22;10970;48.714;9.584;2023-03-29T04:09:31;5.70;99.90
21616;DHT22;10970;48.714;9.584;2023-03-29T04:11:58;5.60;99.90
21616;DHT22;10970;48.714;9.584;2023-03-29T04:14:25;5.60;99.90
21616;DHT22;10970;48.714;9.584;2023-03-29T04:16:52;5.60;99.90
21616;DHT22;10970;48.714;9.584;2023-03-29T04:19:18;5.60;99.90
21616;DHT22;10970;48.714;9.584;2023-03-29T04:21:44;5.70;99.90
21616;DHT22;10970;48.714;9.584;2023-03-29T04:24:12;5.70;99.90
21616;DHT22;10970;48.714;9.584;2023-03-29T04:26:38;5.60;99.90
21616;DHT22;10970;48.714;9.584;2023-03-29T04:29:04;5.60;99.90
21616;DHT22;10970;48.714;9.584;2023-03-29T04:31:30;5.60;99.90
21616;DHT22;10970;48.714;9.584;2023-03-29T04:33:56;5.50;99.90
21616;DHT22;10970;48.714;9.584;2023-03-29T04:36:22;5.50;99.90
21616;DHT22;10970;48.714;9.584;2023-03-29T04:38:48;5.50;99.90
21616;DHT22;10970;48.714;9.584;2023-03-29T04:41:19;5.50;99.90
21616;DHT22;10970;48.714;9.584;2023-03-29T04:43:45;5.50;99.90
21616;DHT22;10970;48.714;9.584;2023-03-29T04:46:12;5.50;99.90
21616;DHT22;10970;48.714;9.584;2023-03-29T04:48:38;5.50;99.90
21616;DHT22;10970;48.714;9.584;2023-03-29T04:51:03;5.50;99.90
21616;DHT22;10970;48.714;9.584;2023-03-29T04:53:30;5.60;99.90
21616;DHT22;10970;48.714;9.584;2023-03-29T04:55:55;5.60;99.90
21616;DHT22;10970;48.714;9.584;2023-03-29T04:58:24;5.60;99.90
21616;DHT22;10970;48.714;9.584;2023-03-29T05:00:50;5.60;99.90
21616;DHT22;10970;48.714;9.584;2023-03-29T05:03:16;5.60;99.90
21616;DHT22;10970;48.714;9.584;2023-03-29T05:05:41;5.60;99.90
21616;DHT22;10970;48.714;9.584;2023-03-29T05:08:08;5.60;99.90
21616;DHT22;10970;48.714;9.584;2023-03-29T05:10:34;5.60;99.90
21616;DHT22;10970;48.714;9.584;2023-03-29T05:13:00;5.60;99.90
21616;DHT22;10970;48.714;9.584;2023-03-29T05:15:29;5.60;99.90
21616;DHT22;10970;48.714;9.584;2023-03-29T05:17:55;5.70;99.90
21616;DHT22;10970;48.714;9.584;2023-03-29T05:20:21;5.80;99.90
21616;DHT22;10970;48.714;9.584;2023-03-29T05:22:47;5.80;99.90
21616;DHT22;10970;48.714;9.584;2023-03-29T05:25:13;5.90;99.90
21616;DHT22;10970;48.714;9.584;2023-03-29T05:27:39;6.00;99.90
21616;DHT22;10970;48.714;9.584;2023-03-29T05:30:05;6.10;99.90
21616;DHT22;10970;48.714;9.584;2023-03-29T05:32:31;6.10;99.90
21616;DHT22;10970;48.714;9.584;2023-03-29T05:34:56;6.10;99.90
21616;DHT22;10970;48.714;9.584;2023-03-29T05:37:22;6.10;99.90
21616;DHT22;10970;48.714;9.584;2023-03-29T05:39:47;6.10;99.90
21616;DHT22;10970;48.714;9.584;2023-03-29T05:42:14;6.10;99.90
21616;DHT22;10970;48.714;9.584;2023-03-29T05:44:40;6.10;99.90
21616;DHT22;10970;48.714;9.584;2023-03-29T05:47:06;6.10;99.90
21616;DHT22;10970;48.714;9.584;2023-03-29T05:49:32;6.20;99.90
21616;DHT22;10970;48.714;9.584;2023-03-29T05:51:58;6.20;99.90
21616;DHT22;10970;48.714;9.584;2023-03-29T05:54:24;6.20;99.90
21616;DHT22;10970;48.714;9.584;2023-03-29T05:56:50;6.30;99.90
21616;DHT22;10970;48.714;9.584;2023-03-29T05:59:16;6.40;99.90
21616;DHT22;10970;48.714;9.584;2023-03-29T06:01:43;6.40;99.90
21616;DHT22;10970;48.714;9.584;2023-03-29T06:04:12;6.50;99.90
21616;DHT22;10970;48.714;9.584;2023-03-29T06:06:38;6.50;99.90
21616;DHT22;10970;48.714;9.584;2023-03-29T06:09:04;6.50;99.90
21616;DHT22;10970;48.714;9.584;2023-03-29T06:11:31;6.60;99.90
21616;DHT22;10970;48.714;9.584;2023-03-29T06:13:57;6.70;99.90
21616;DHT22;10970;48.714;9.584;2023-03-29T06:16:23;6.70;99.90
21616;DHT22;10970;48.714;9.584;2023-03-29T06:18:49;6.80;99.90
21616;DHT22;10970;48.714;9.584;2023-03-29T06:21:15;6.80;99.90
21616;DHT22;10970;48.714;9.584;2023-03-29T06:23:41;6.80;99.90
21616;DHT22;10970;48.714;9.584;2023-03-29T06:26:06;6.90;99.90
21616;DHT22;10970;48.714;9.584;2023-03-29T06:28:32;6.90;99.90
21616;DHT22;10970;48.714;9.584;2023-03-29T06:30:58;6.90;99.90
21616;DHT22;10970;48.714;9.584;2023-03-29T06:33:27;6.80;99.90
21616;DHT22;10970;48.714;9.584;2023-03-29T06:35:54;6.90;99.90
21616;DHT22;10970;48.714;9.584;2023-03-29T06:38:20;6.80;99.90
21616;DHT22;10970;48.714;9.584;2023-03-29T06:40:45;6.80;99.90
21616;DHT22;10970;48.714;9.584;2023-03-29T06:43:12;6.90;99.90
21616;DHT22;10970;48.714;9.584;2023-03-29T06:45:39;7.10;99.90
21616;DHT22;10970;48.714;9.584;2023-03-29T06:48:07;7.10;99.90
21616;DHT22;10970;48.714;9.584;2023-03-29T06:50:33;7.10;99.90
21616;DHT22;10970;48.714;9.584;2023-03-29T06:52:59;7.20;99.90
21616;DHT22;10970;48.714;9.584;2023-03-29T06:55:24;7.30;99.90
21616;DHT22;10970;48.714;9.584;2023-03-29T06:57:52;7.40;99.90
21616;DHT22;10970;48.714;9.584;2023-03-29T07:00:18;7.50;99.90
21616;DHT22;10970;48.714;9.584;2023-03-29T07:02:55;7.60;99.90
21616;DHT22;10970;48.714;9.584;2023-03-29T07:05:24;7.70;99.90
21616;DHT22;10970;48.714;9.584;2023-03-29T07:07:52;7.90;99.90
21616;DHT22;10970;48.714;9.584;2023-03-29T07:10:27;8.10;99.90
21616;DHT22;10970;48.714;9.584;2023-03-29T07:12:57;8.40;99.90
21616;DHT22;10970;48.714;9.584;2023-03-29T07:15:24;8.70;99.90
21616;DHT22;10970;48.714;9.584;2023-03-29T07:17:50;8.90;99.90
21616;DHT22;10970;48.714;9.584;2023-03-29T07:20:16;9.00;99.90
21616;DHT22;10970;48.714;9.584;2023-03-29T07:22:43;9.10;99.90
21616;DHT22;10970;48.714;9.584;2023-03-29T07:25:10;9.30;99.90
21616;DHT22;10970;48.714;9.584;2023-03-29T07:27:37;9.40;99.90
21616;DHT22;10970;48.714;9.584;2023-03-29T07:30:05;9.50;99.90
21616;DHT22;10970;48.714;9.584;2023-03-29T07:32:39;9.40;99.90
21616;DHT22;10970;48.714;9.584;2023-03-29T07:35:06;9.40;99.90
21616;DHT22;10970;48.714;9.584;2023-03-29T07:37:33;9.30;99.90
21616;DHT22;10970;48.714;9.584;2023-03-29T07:40:00;9.20;99.90
21616;DHT22;10970;48.714;9.584;2023-03-29T07:42:28;9.20;99.90
21616;DHT22;10970;48.714;9.584;2023-03-29T07:44:54;9.20;99.90
21616;DHT22;10970;48.714;9.584;2023-03-29T07:47:20;9.10;99.90
21616;DHT22;10970;48.714;9.584;2023-03-29T07:49:46;9.10;99.90
21616;DHT22;10970;48.714;9.584;2023-03-29T07:52:12;9.20;99.90
21616;DHT22;10970;48.714;9.584;2023-03-29T07:54:38;9.20;99.90
21616;DHT22;10970;48.714;9.584;2023-03-29T07:57:03;9.20;99.90
21616;DHT22;10970;48.714;9.584;2023-03-29T07:59:29;9.10;99.90
21616;DHT22;10970;48.714;9.584;2023-03-29T08:01:55;9.20;99.90
21616;DHT22;10970;48.714;9.584;2023-03-29T08:04:21;9.20;99.90
21616;DHT22;10970;48.714;9.584;2023-03-29T08:06:47;9.20;99.90
21616;DHT22;10970;48.714;9.584;2023-03-29T08:09:13;9.20;99.90
21616;DHT22;10970;48.714;9.584;2023-03-29T08:11:39;9.30;99.90
21616;DHT22;10970;48.714;9.584;2023-03-29T08:14:05;9.30;99.90
21616;DHT22;10970;48.714;9.584;2023-03-29T08:16:32;9.30;99.90
21616;DHT22;10970;48.714;9.584;2023-03-29T08:18:58;9.50;99.90
21616;DHT22;10970;48.714;9.584;2023-03-29T08:21:24;9.60;99.90
21616;DHT22;10970;48.714;9.584;2023-03-29T08:23:50;9.70;99.90
21616;DHT22;10970;48.714;9.584;2023-03-29T08:26:16;9.70;99.90
21616;DHT22;10970;48.714;9.584;2023-03-29T08:28:42;9.70;99.90
21616;DHT22;10970;48.714;9.584;2023-03-29T08:31:08;9.80;99.90
21616;DHT22;10970;48.714;9.584;2023-03-29T08:33:35;9.90;99.90
21616;DHT22;10970;48.714;9.584;2023-03-29T08:36:01;9.90;99.90
21616;DHT22;10970;48.714;9.584;2023-03-29T08:38:27;10.10;99.90
21616;DHT22;10970;48.714;9.584;2023-03-29T08:40:53;10.20;99.90
21616;DHT22;10970;48.714;9.584;2023-03-29T08:46:33;10.40;99.90
21616;DHT22;10970;48.714;9.584;2023-03-29T08:49:03;10.40;99.90
21616;DHT22;10970;48.714;9.584;2023-03-29T08:51:44;10.30;99.90
21616;DHT22;10970;48.714;9.584;2023-03-29T08:54:17;10.40;99.90
21616;DHT22;10970;48.714;9.584;2023-03-29T08:56:45;10.50;99.90
21616;DHT22;10970;48.714;9.584;2023-03-29T08:59:24;10.70;99.90
21616;DHT22;10970;48.714;9.584;2023-03-29T09:01:53;10.80;99.90
21616;DHT22;10970;48.714;9.584;2023-03-29T09:04:27;10.90;99.90
21616;DHT22;10970;48.714;9.584;2023-03-29T09:06:54;11.00;99.90
21616;DHT22;10970;48.714;9.584;2023-03-29T09:09:22;11.00;99.90
21616;DHT22;10970;48.714;9.584;2023-03-29T09:28:04;12.20;99.90
21616;DHT22;10970;48.714;9.584;2023-03-29T09:33:10;12.70;99.90
21616;DHT22;10970;48.714;9.584;2023-03-29T09:35:52;12.70;99.90
21616;DHT22;10970;48.714;9.584;2023-03-29T09:38:19;12.80;99.90
21616;DHT22;10970;48.714;9.584;2023-03-29T09:40:47;12.90;99.90
21616;DHT22;10970;48.714;9.584;2023-03-29T09:43:18;13.10;99.90
21616;DHT22;10970;48.714;9.584;2023-03-29T09:45:51;13.30;99.90
21616;DHT22;10970;48.714;9.584;2023-03-29T09:48:18;13.30;99.90
21616;DHT22;10970;48.714;9.584;2023-03-29T09:50:47;13.60;99.90
21616;DHT22;10970;48.714;9.584;2023-03-29T09:53:17;13.90;99.90
21616;DHT22;10970;48.714;9.584;2023-03-29T09:55:44;14.00;99.90
21616;DHT22;10970;48.714;9.584;2023-03-29T09:58:16;13.90;99.90
21616;DHT22;10970;48.714;9.584;2023-03-29T10:00:44;14.00;99.90
21616;DHT22;10970;48.714;9.584;2023-03-29T10:03:20;14.10;99.90
21616;DHT22;10970;48.714;9.584;2023-03-29T10:05:49;14.10;99.90
21616;DHT22;10970;48.714;9.584;2023-03-29T10:08:42;14.10;99.90
21616;DHT22;10970;48.714;9.584;2023-03-29T10:11:18;14.30;99.90
21616;DHT22;10970;48.714;9.584;2023-03-29T10:13:50;14.40;99.90
21616;DHT22;10970;48.714;9.584;2023-03-29T10:16:22;14.20;99.90
21616;DHT22;10970;48.714;9.584;2023-03-29T10:18:49;14.20;99.90
21616;DHT22;10970;48.714;9.584;2023-03-29T10:21:16;14.20;99.90
21616;DHT22;10970;48.714;9.584;2023-03-29T10:23:45;14.30;99.90
21616;DHT22;10970;48.714;9.584;2023-03-29T10:26:31;14.10;99.90
21616;DHT22;10970;48.714;9.584;2023-03-29T10:28:58;14.30;99.90
21616;DHT22;10970;48.714;9.584;2023-03-29T10:31:28;14.30;99.90
21616;DHT22;10970;48.714;9.584;2023-03-29T10:33:56;14.40;99.90
21616;DHT22;10970;48.714;9.584;2023-03-29T10:36:26;14.30;99.90
21616;DHT22;10970;48.714;9.584;2023-03-29T10:38:55;14.50;99.90
21616;DHT22;10970;48.714;9.584;2023-03-29T10:41:21;14.60;99.90
21616;DHT22;10970;48.714;9.584;2023-03-29T10:43:49;14.60;99.90
21616;DHT22;10970;48.714;9.584;2023-03-29T10:46:30;14.50;99.90
21616;DHT22;10970;48.714;9.584;2023-03-29T10:49:04;14.50;99.90
21616;DHT22;10970;48.714;9.584;2023-03-29T10:51:34;14.70;99.90
21616;DHT22;10970;48.714;9.584;2023-03-29T10:54:02;14.60;99.90
21616;DHT22;10970;48.714;9.584;2023-03-29T10:56:40;14.50;99.90
21616;DHT22;10970;48.714;9.584;2023-03-29T11:12:57;15.00;99.90
21616;DHT22;10970;48.714;9.584;2023-03-29T11:18:47;15.00;99.90
21616;DHT22;10970;48.714;9.584;2023-03-29T11:21:28;15.20;99.90
21616;DHT22;10970;48.714;9.584;2023-03-29T11:26:51;15.10;99.90
21616;DHT22;10970;48.714;9.584;2023-03-29T11:29:32;15.30;99.90
21616;DHT22;10970;48.714;9.584;2023-03-29T11:37:20;15.60;99.90
21616;DHT22;10970;48.714;9.584;2023-03-29T11:40:02;15.80;99.90
21616;DHT22;10970;48.714;9.584;2023-03-29T11:42:33;15.90;99.90
21616;DHT22;10970;48.714;9.584;2023-03-29T11:45:01;15.80;99.90
21616;DHT22;10970;48.714;9.584;2023-03-29T11:47:34;15.80;99.90
21616;DHT22;10970;48.714;9.584;2023-03-29T11:52:50;16.10;99.90
21616;DHT22;10970;48.714;9.584;2023-03-29T11:55:21;16.30;99.90
21616;DHT22;10970;48.714;9.584;2023-03-29T12:01:29;16.30;99.90
21616;DHT22;10970;48.714;9.584;2023-03-29T12:03:52;16.40;99.90
21616;DHT22;10970;48.714;9.584;2023-03-29T12:06:25;16.50;99.90
21616;DHT22;10970;48.714;9.584;2023-03-29T12:09:09;16.50;99.90
21616;DHT22;10970;48.714;9.584;2023-03-29T12:11:47;16.60;99.90
21616;DHT22;10970;48.714;9.584;2023-03-29T12:17:15;16.50;99.90
21616;DHT22;10970;48.714;9.584;2023-03-29T12:19:58;16.40;99.90
21616;DHT22;10970;48.714;9.584;2023-03-29T12:22:25;16.30;99.90
21616;DHT22;10970;48.714;9.584;2023-03-29T12:24:51;16.50;99.90
21616;DHT22;10970;48.714;9.584;2023-03-29T12:27:25;16.60;99.90
21616;DHT22;10970;48.714;9.584;2023-03-29T12:30:35;16.50;99.90
21616;DHT22;10970;48.714;9.584;2023-03-29T12:38:35;16.90;99.90
21616;DHT22;10970;48.714;9.584;2023-03-29T12:41:42;17.00;99.90
21616;DHT22;10970;48.714;9.584;2023-03-29T12:44:02;16.90;99.90
21616;DHT22;10970;48.714;9.584;2023-03-29T12:46:32;16.80;99.90
21616;DHT22;10970;48.714;9.584;2023-03-29T12:49:09;16.80;99.90
21616;DHT22;10970;48.714;9.584;2023-03-29T12:51:39;16.70;99.90
21616;DHT22;10970;48.714;9.584;2023-03-29T12:54:11;16.70;99.90
21616;DHT22;10970;48.714;9.584;2023-03-29T13:02:25;16.70;99.90
21616;DHT22;10970;48.714;9.584;2023-03-29T13:04:57;16.70;99.90
21616;DHT22;10970;48.714;9.584;2023-03-29T13:07:28;16.70;99.90
21616;DHT22;10970;48.714;9.584;2023-03-29T13:09:57;16.80;99.90
21616;DHT22;10970;48.714;9.584;2023-03-29T13:12:27;16.60;99.90
21616;DHT22;10970;48.714;9.584;2023-03-29T13:15:21;16.60;99.90
21616;DHT22;10970;48.714;9.584;2023-03-29T13:20:46;16.20;99.90
21616;DHT22;10970;48.714;9.584;2023-03-29T13:23:54;16.10;99.90
21616;DHT22;10970;48.714;9.584;2023-03-29T13:29:02;16.10;99.90
21616;DHT22;10970;48.714;9.584;2023-03-29T13:39:54;16.20;99.90
21616;DHT22;10970;48.714;9.584;2023-03-29T13:44:49;16.10;99.90
21616;DHT22;10970;48.714;9.584;2023-03-29T13:50:09;15.90;99.90
21616;DHT22;10970;48.714;9.584;2023-03-29T13:52:40;15.70;99.90
21616;DHT22;10970;48.714;9.584;2023-03-29T13:55:42;15.70;99.90
21616;DHT22;10970;48.714;9.584;2023-03-29T14:00:49;15.90;99.90
21616;DHT22;10970;48.714;9.584;2023-03-29T14:03:20;15.70;99.90
21616;DHT22;10970;48.714;9.584;2023-03-29T14:05:58;15.70;99.90
21616;DHT22;10970;48.714;9.584;2023-03-29T14:08:35;15.70;99.90
21616;DHT22;10970;48.714;9.584;2023-03-29T14:11:05;15.60;99.90
21616;DHT22;10970;48.714;9.584;2023-03-29T14:13:32;15.70;99.90
21616;DHT22;10970;48.714;9.584;2023-03-29T14:16:01;15.60;99.90
21616;DHT22;10970;48.714;9.584;2023-03-29T14:18:33;15.60;99.90
21616;DHT22;10970;48.714;9.584;2023-03-29T14:21:01;15.50;99.90
21616;DHT22;10970;48.714;9.584;2023-03-29T14:23:28;15.40;99.90
21616;DHT22;10970;48.714;9.584;2023-03-29T14:28:49;15.30;99.90
21616;DHT22;10970;48.714;9.584;2023-03-29T14:31:25;15.20;99.90
21616;DHT22;10970;48.714;9.584;2023-03-29T14:33:55;15.10;99.90
21616;DHT22;10970;48.714;9.584;2023-03-29T14:36:22;14.80;99.90
21616;DHT22;10970;48.714;9.584;2023-03-29T14:38:51;14.40;99.90
21616;DHT22;10970;48.714;9.584;2023-03-29T14:41:18;14.30;99.90
21616;DHT22;10970;48.714;9.584;2023-03-29T14:43:45;14.00;99.90
21616;DHT22;10970;48.714;9.584;2023-03-29T14:46:14;13.90;99.90
21616;DHT22;10970;48.714;9.584;2023-03-29T14:48:41;13.90;99.90
21616;DHT22;10970;48.714;9.584;2023-03-29T14:51:08;14.00;99.90
21616;DHT22;10970;48.714;9.584;2023-03-29T14:53:35;14.00;99.90
21616;DHT22;10970;48.714;9.584;2023-03-29T14:56:03;13.90;99.90
21616;DHT22;10970;48.714;9.584;2023-03-29T14:58:34;13.90;99.90
21616;DHT22;10970;48.714;9.584;2023-03-29T15:01:17;14.00;99.90
21616;DHT22;10970;48.714;9.584;2023-03-29T15:03:50;14.00;99.90
21616;DHT22;10970;48.714;9.584;2023-03-29T15:06:16;13.90;99.90
21616;DHT22;10970;48.714;9.584;2023-03-29T15:08:44;13.90;99.90
21616;DHT22;10970;48.714;9.584;2023-03-29T15:11:24;14.00;99.90
21616;DHT22;10970;48.714;9.584;2023-03-29T15:14:07;14.20;99.90
21616;DHT22;10970;48.714;9.584;2023-03-29T15:16:38;14.30;99.90
21616;DHT22;10970;48.714;9.584;2023-03-29T15:19:05;14.50;99.90
21616;DHT22;10970;48.714;9.584;2023-03-29T15:21:33;14.60;99.90
21616;DHT22;10970;48.714;9.584;2023-03-29T15:24:02;14.70;99.90
21616;DHT22;10970;48.714;9.584;2023-03-29T15:26:31;14.90;99.90
21616;DHT22;10970;48.714;9.584;2023-03-29T15:29:14;15.00;99.90
21616;DHT22;10970;48.714;9.584;2023-03-29T15:31:55;14.90;99.90
21616;DHT22;10970;48.714;9.584;2023-03-29T15:34:26;14.80;99.90
21616;DHT22;10970;48.714;9.584;2023-03-29T15:36:52;14.70;99.90
21616;DHT22;10970;48.714;9.584;2023-03-29T15:39:18;14.70;99.90
21616;DHT22;10970;48.714;9.584;2023-03-29T15:41:46;14.50;99.90
21616;DHT22;10970;48.714;9.584;2023-03-29T15:44:21;14.50;99.90
21616;DHT22;10970;48.714;9.584;2023-03-29T15:46:47;14.40;99.90
21616;DHT22;10970;48.714;9.584;2023-03-29T15:49:13;14.50;99.90
21616;DHT22;10970;48.714;9.584;2023-03-29T15:51:40;14.50;99.90
21616;DHT22;10970;48.714;9.584;2023-03-29T15:54:06;14.40;99.90
21616;DHT22;10970;48.714;9.584;2023-03-29T15:56:36;14.20;99.90
21616;DHT22;10970;48.714;9.584;2023-03-29T15:59:03;14.30;99.90
21616;DHT22;10970;48.714;9.584;2023-03-29T16:01:30;14.40;99.90
21616;DHT22;10970;48.714;9.584;2023-03-29T16:06:27;14.60;99.90
21616;DHT22;10970;48.714;9.584;2023-03-29T16:08:53;14.70;99.90
21616;DHT22;10970;48.714;9.584;2023-03-29T16:11:18;14.50;99.90
21616;DHT22;10970;48.714;9.584;2023-03-29T16:13:44;14.50;99.90
21616;DHT22;10970;48.714;9.584;2023-03-29T16:16:10;14.50;99.90
21616;DHT22;10970;48.714;9.584;2023-03-29T16:18:36;14.40;99.90
21616;DHT22;10970;48.714;9.584;2023-03-29T16:21:02;14.40;99.90
21616;DHT22;10970;48.714;9.584;2023-03-29T16:23:29;14.30;99.90
21616;DHT22;10970;48.714;9.584;2023-03-29T16:25:55;14.30;99.90
21616;DHT22;10970;48.714;9.584;2023-03-29T16:28:21;14.10;99.90
21616;DHT22;10970;48.714;9.584;2023-03-29T16:30:47;14.00;99.90
21616;DHT22;10970;48.714;9.584;2023-03-29T16:33:13;13.90;99.90
21616;DHT22;10970;48.714;9.584;2023-03-29T16:35:39;13.90;99.90
21616;DHT22;10970;48.714;9.584;2023-03-29T16:38:06;13.90;99.90
21616;DHT22;10970;48.714;9.584;2023-03-29T16:40:33;13.90;99.90
21616;DHT22;10970;48.714;9.584;2023-03-29T16:42:59;13.90;99.90
21616;DHT22;10970;48.714;9.584;2023-03-29T16:45:25;13.80;99.90
21616;DHT22;10970;48.714;9.584;2023-03-29T16:47:51;13.80;99.90
21616;DHT22;10970;48.714;9.584;2023-03-29T16:50:18;13.80;99.90
21616;DHT22;10970;48.714;9.584;2023-03-29T16:52:45;13.80;99.90
21616;DHT22;10970;48.714;9.584;2023-03-29T16:55:13;13.70;99.90
21616;DHT22;10970;48.714;9.584;2023-03-29T16:57:40;13.80;99.90
21616;DHT22;10970;48.714;9.584;2023-03-29T17:00:08;13.90;99.90
21616;DHT22;10970;48.714;9.584;2023-03-29T17:02:39;14.00;99.90
21616;DHT22;10970;48.714;9.584;2023-03-29T17:05:05;13.90;99.90
21616;DHT22;10970;48.714;9.584;2023-03-29T17:07:31;13.70;99.90
21616;DHT22;10970;48.714;9.584;2023-03-29T17:09:57;13.60;99.90
21616;DHT22;10970;48.714;9.584;2023-03-29T17:12:23;13.50;99.90
21616;DHT22;10970;48.714;9.584;2023-03-29T17:14:49;13.40;99.90
21616;DHT22;10970;48.714;9.584;2023-03-29T17:17:15;13.30;99.90
21616;DHT22;10970;48.714;9.584;2023-03-29T17:19:41;13.20;99.90
21616;DHT22;10970;48.714;9.584;2023-03-29T17:22:07;13.10;99.90
21616;DHT22;10970;48.714;9.584;2023-03-29T17:24:32;13.00;99.90
21616;DHT22;10970;48.714;9.584;2023-03-29T17:26:58;13.00;99.90
21616;DHT22;10970;48.714;9.584;2023-03-29T17:29:24;13.00;99.90
21616;DHT22;10970;48.714;9.584;2023-03-29T17:31:49;13.00;99.90
21616;DHT22;10970;48.714;9.584;2023-03-29T17:34:16;13.00;99.90
21616;DHT22;10970;48.714;9.584;2023-03-29T17:36:43;12.90;99.90